Time;durP1;ratioP1;P1;durP2;ratioP2;P2;SDS_P1;SDS_P2;PMS_P1;PMS_P2;Temp;Humidity;BMP_temperature;BMP_pressure;BME280_temperature;BME280_humidity;BME280_pressure;Samples;Min_cycle;Max_cycle;Signal;HPM_P1;HPM_P2
2023/03/28 00:00:28;;;;;;;5.83;3.47;;;;;;;-141.97;73.15;47718.97;4862293;29;20196;-89
2023/03/28 00:02:53;;;;;;;4.40;3.00;;;;;;;-141.97;73.33;47486.41;4862054;29;20681;-90
2023/03/28 00:05:20;;;;;;;3.47;2.87;;;;;;;-141.97;73.30;47634.41;4860603;29;20203;-90
2023/03/28 00:07:46;;;;;;;4.70;3.30;;;;;;;-141.97;74.02;47565.22;4860773;29;20187;-90
2023/03/28 00:10:12;;;;;;;3.70;2.63;;;;;;;-141.97;74.11;47720.91;4860666;29;20172;-90
2023/03/28 00:12:37;;;;;;;5.33;3.47;;;;;;;-141.97;74.38;47584.44;4861689;29;20195;-89
2023/03/28 00:15:03;;;;;;;4.77;3.03;;;;;;;-141.97;74.34;47622.88;4860367;29;20564;-92
2023/03/28 00:17:29;;;;;;;4.63;3.00;;;;;;;-141.97;74.14;47572.91;4862106;29;20239;-89
2023/03/28 00:19:55;;;;;;;4.50;2.73;;;;;;;-141.97;73.48;47551.75;4861502;29;20203;-90
2023/03/28 00:22:21;;;;;;;3.67;2.60;;;;;;;-141.97;73.64;47628.63;4860043;29;20238;-91
2023/03/28 00:24:47;;;;;;;4.10;3.07;;;;;;;-141.97;73.36;47484.47;4862334;29;20251;-89
2023/03/28 00:27:14;;;;;;;3.50;2.47;;;;;;;-141.97;72.66;47519.06;4861627;29;20179;-88
2023/03/28 00:29:40;;;;;;;3.03;2.43;;;;;;;-141.97;73.24;47592.13;4861634;29;20179;-89
2023/03/28 00:32:06;;;;;;;2.50;1.87;;;;;;;-141.97;73.06;47642.09;4859996;29;20202;-89
2023/03/28 00:34:32;;;;;;;3.63;2.30;;;;;;;-141.97;72.91;47521.00;4859770;29;20564;-90
2023/03/28 00:37:01;;;;;;;3.30;2.20;;;;;;;-141.97;72.38;47576.75;4860127;29;20184;-90
2023/03/28 00:39:28;;;;;;;3.10;2.27;;;;;;;-141.97;72.66;47640.16;4860068;29;20176;-90
2023/03/28 00:41:55;;;;;;;2.43;1.70;;;;;;;-141.97;71.81;47603.66;4860117;29;20183;-90
2023/03/28 00:44:47;;;;;;;3.03;1.97;;;;;;;-141.97;71.19;47619.03;4859925;29;20637;-89
2023/03/28 00:47:16;;;;;;;2.77;2.00;;;;;;;-141.97;71.02;47670.91;4859826;29;20168;-90
2023/03/28 00:49:45;;;;;;;2.57;2.07;;;;;;;-141.97;70.98;47624.78;4859865;29;20180;-90
2023/03/28 00:52:14;;;;;;;3.47;2.30;;;;;;;-141.97;71.22;47761.25;4861108;29;20738;-91
2023/03/28 00:54:40;;;;;;;2.97;1.97;;;;;;;-141.97;70.96;47542.16;4861128;29;20229;-90
2023/03/28 00:57:07;;;;;;;2.20;1.70;;;;;;;-141.97;71.39;47786.25;4860153;29;20196;-89
2023/03/28 00:59:35;;;;;;;2.93;2.10;;;;;;;-141.97;71.17;47663.22;4859913;29;20183;-90
2023/03/28 01:02:00;;;;;;;2.33;1.90;;;;;;;-141.97;70.71;47513.31;4859975;29;20168;-90
2023/03/28 01:04:45;;;;;;;2.53;1.97;;;;;;;-141.97;69.66;47697.84;4859700;29;20200;-89
2023/03/28 01:07:12;;;;;;;3.03;2.33;;;;;;;-141.97;68.76;47524.84;4891397;29;20192;-89
2023/03/28 01:09:39;;;;;;;3.73;2.43;;;;;;;-141.97;68.25;47709.38;4861417;29;20500;-89
2023/03/28 01:12:04;;;;;;;3.70;2.50;;;;;;;-141.97;69.02;47767.03;4861007;29;20452;-90
2023/03/28 01:14:31;;;;;;;3.70;2.80;;;;;;;-141.97;70.03;47655.53;4860050;29;20486;-90
2023/03/28 01:16:56;;;;;;;4.30;2.87;;;;;;;-141.97;70.15;47611.34;4860867;29;20172;-90
2023/03/28 01:20:13;;;;;;;4.60;2.93;;;;;;;-141.97;69.60;47592.13;4859100;29;20421;-89
2023/03/28 01:23:03;;;;;;;4.57;3.27;;;;;;;-141.97;70.05;47682.47;4858946;29;20231;-89
2023/03/28 01:25:43;;;;;;;4.40;2.80;;;;;;;-141.97;70.15;47638.25;4859287;29;20437;-89
2023/03/28 01:28:30;;;;;;;4.47;3.20;;;;;;;-141.97;70.38;47640.16;4858188;29;20417;-90
2023/03/28 01:31:14;;;;;;;4.23;2.80;;;;;;;-141.97;69.80;47617.09;4858056;29;20476;-90
2023/03/28 01:34:01;;;;;;;5.20;2.80;;;;;;;-141.97;69.71;47644.00;4861693;29;20471;-89
2023/03/28 01:36:51;;;;;;;3.33;2.27;;;;;;;-141.97;69.79;47644.00;4858022;29;20838;-90
2023/03/28 01:39:41;;;;;;;4.17;3.07;;;;;;;-141.97;68.64;47609.41;4858163;29;20519;-89
2023/03/28 01:42:32;;;;;;;4.40;2.83;;;;;;;-141.97;68.38;47603.66;4858640;29;20469;-89
2023/03/28 01:45:03;;;;;;;4.13;2.87;;;;;;;-141.97;68.13;47601.72;4857526;29;20437;-88
2023/03/28 01:47:54;;;;;;;3.90;2.50;;;;;;;-141.97;68.48;47622.88;4859281;29;20440;-89
2023/03/28 01:50:48;;;;;;;3.63;2.40;;;;;;;-141.97;67.74;47634.41;4769014;30;21086;-89
2023/03/28 01:53:36;;;;;;;4.53;2.80;;;;;;;-141.97;67.87;47619.03;4735876;30;21274;-89
2023/03/28 01:57:09;;;;;;;3.27;2.30;;;;;;;-141.97;66.91;47720.91;4739359;30;20448;-90
2023/03/28 01:59:42;;;;;;;3.10;2.30;;;;;;;-141.97;66.73;47651.69;4692386;30;20517;-90
2023/03/28 02:02:21;;;;;;;3.27;2.40;;;;;;;-141.97;66.07;47644.00;4681294;30;20881;-90
2023/03/28 02:04:47;;;;;;;2.67;2.30;;;;;;;-141.97;65.92;47578.66;4668374;30;20453;-88
2023/03/28 02:07:17;;;;;;;3.03;2.27;;;;;;;-141.97;65.68;47615.19;4684306;30;20438;-88
2023/03/28 02:09:46;;;;;;;3.30;2.10;;;;;;;-141.97;65.63;47584.44;4677419;30;20458;-90
2023/03/28 02:12:19;;;;;;;4.40;2.43;;;;;;;-141.97;65.30;47594.03;4669171;30;20488;-91
2023/03/28 02:14:46;;;;;;;3.10;2.20;;;;;;;-141.97;64.80;47553.69;4680032;30;20426;-90
2023/03/28 02:17:15;;;;;;;3.93;2.53;;;;;;;-141.97;64.65;47563.28;4665648;30;20441;-90
2023/03/28 02:19:49;;;;;;;2.83;2.23;;;;;;;-141.97;64.48;47647.84;4665299;30;20944;-90
2023/03/28 02:22:23;;;;;;;3.80;2.40;;;;;;;-141.97;64.34;47584.44;4679312;30;20580;-90
2023/03/28 02:24:50;;;;;;;3.17;2.00;;;;;;;-141.97;64.65;47561.38;4679972;30;20855;-90
2023/03/28 02:27:18;;;;;;;4.10;3.13;;;;;;;-141.97;64.87;47715.13;4692027;30;20428;-90
2023/03/28 02:29:43;;;;;;;3.73;2.70;;;;;;;-141.97;64.86;47684.38;4770451;29;20443;-90
2023/03/28 02:32:09;;;;;;;3.57;2.90;;;;;;;-141.97;64.87;47699.75;4797362;29;20542;-89
2023/03/28 02:34:35;;;;;;;2.77;2.30;;;;;;;-141.97;65.35;47728.59;4843320;29;20185;-90
2023/03/28 02:37:20;;;;;;;5.87;3.53;;;;;;;-141.97;65.82;47657.47;4864653;29;20545;-90
2023/03/28 02:40:14;;;;;;;3.17;2.37;;;;;;;-141.97;65.61;47626.72;4841550;29;20205;-90
2023/03/28 02:43:01;;;;;;;4.57;3.17;;;;;;;-141.97;65.90;47603.66;4842329;29;20403;-90
2023/03/28 02:45:35;;;;;;;4.43;2.67;;;;;;;-141.97;65.90;47680.53;4840076;29;20425;-90
2023/03/28 02:48:23;;;;;;;5.17;3.60;;;;;;;-141.97;65.84;47670.91;4840929;29;20844;-91
2023/03/28 02:51:11;;;;;;;5.13;3.80;;;;;;;-141.97;65.36;47642.09;4841183;29;20461;-91
2023/03/28 02:53:49;;;;;;;5.67;3.57;;;;;;;-141.97;65.24;47632.47;4870517;29;20436;-91
2023/03/28 02:56:52;;;;;;;7.13;4.07;;;;;;;-141.97;65.51;47638.25;4841487;29;20811;-89
2023/03/28 02:59:19;;;;;;;8.13;4.93;;;;;;;-141.97;65.79;47609.41;4860952;29;20470;-90
2023/03/28 03:01:45;;;;;;;7.67;5.40;;;;;;;-141.97;66.28;47649.78;4860919;29;21060;-90
2023/03/28 03:04:12;;;;;;;5.93;4.07;;;;;;;-141.97;66.09;47607.50;4861352;29;20433;-90
2023/03/28 03:06:38;;;;;;;8.70;4.80;;;;;;;-141.97;65.89;47680.53;4860639;29;20291;-90
2023/03/28 03:09:03;;;;;;;6.37;4.20;;;;;;;-141.97;65.24;47715.13;4861129;29;20918;-90
2023/03/28 03:11:30;;;;;;;5.67;4.60;;;;;;;-141.97;65.36;47653.63;4861062;29;20200;-90
2023/03/28 03:13:56;;;;;;;6.93;4.97;;;;;;;-141.97;65.41;47682.47;4845718;29;20183;-90
2023/03/28 03:16:22;;;;;;;6.77;4.37;;;;;;;-141.97;65.12;47595.97;4862220;29;20425;-90
2023/03/28 03:18:48;;;;;;;6.20;4.27;;;;;;;-141.97;65.21;47611.34;4861221;29;20420;-90
2023/03/28 03:21:13;;;;;;;7.17;4.40;;;;;;;-141.97;65.18;47713.22;4861605;29;20461;-90
2023/03/28 03:23:39;;;;;;;8.63;3.67;;;;;;;-141.97;64.92;47609.41;4845513;29;20195;-91
2023/03/28 03:26:05;;;;;;;6.50;4.43;;;;;;;-141.97;65.19;47620.94;4860869;29;20180;-90
2023/03/28 03:28:31;;;;;;;7.60;4.57;;;;;;;-141.97;65.18;47603.66;4860968;29;20425;-90
2023/03/28 03:30:56;;;;;;;6.23;4.07;;;;;;;-141.97;65.33;47653.63;4846003;29;20204;-90
2023/03/28 03:33:21;;;;;;;5.53;4.20;;;;;;;-141.97;65.13;47557.53;4848914;29;20181;-90
2023/03/28 03:35:47;;;;;;;6.43;5.33;;;;;;;-141.97;65.55;47599.81;4858948;29;20279;-90
2023/03/28 03:38:12;;;;;;;6.30;4.20;;;;;;;-141.97;65.03;47551.75;4874627;29;20188;-90
2023/03/28 03:40:38;;;;;;;8.23;4.63;;;;;;;-141.97;64.53;47538.28;4859536;29;20181;-91
2023/03/28 03:43:03;;;;;;;9.27;4.83;;;;;;;-141.97;64.62;47667.06;4859331;29;20268;-91
2023/03/28 03:45:29;;;;;;;9.07;4.53;;;;;;;-141.97;65.01;47628.63;4844633;29;20177;-92
2023/03/28 03:47:55;;;;;;;7.00;4.30;;;;;;;-141.97;64.39;47699.75;4859663;29;20256;-91
2023/03/28 03:50:20;;;;;;;7.13;5.10;;;;;;;-141.97;64.29;47699.75;4858180;29;20205;-90
2023/03/28 03:52:46;;;;;;;8.13;4.87;;;;;;;-141.97;64.17;47492.16;4861190;29;20211;-91
2023/03/28 03:55:11;;;;;;;7.70;4.60;;;;;;;-141.97;64.47;47669.00;4846387;29;20169;-91
2023/03/28 03:57:36;;;;;;;7.67;4.80;;;;;;;-141.97;64.25;47701.69;4859862;29;20207;-92
2023/03/28 04:00:10;;;;;;;6.13;3.93;;;;;;;-141.97;64.34;47580.59;4844797;29;20171;-90
2023/03/28 04:02:35;;;;;;;7.80;4.43;;;;;;;-141.97;63.95;47599.81;4861938;29;20183;-90
2023/03/28 04:05:01;;;;;;;7.63;4.80;;;;;;;-141.97;64.11;47532.53;4846176;29;20409;-90
2023/03/28 04:07:26;;;;;;;5.70;4.03;;;;;;;-141.97;62.98;47553.69;4858902;29;20236;-90
2023/03/28 04:09:52;;;;;;;6.13;4.20;;;;;;;-141.97;62.67;47472.94;4846230;29;20668;-90
2023/03/28 04:12:17;;;;;;;6.83;4.23;;;;;;;-141.97;62.46;47695.91;4846035;29;20291;-90
2023/03/28 04:14:43;;;;;;;5.90;3.93;;;;;;;-141.97;62.36;47542.16;4843858;29;20180;-92
2023/03/28 04:17:08;;;;;;;5.63;3.53;;;;;;;-141.97;61.62;47672.84;4844698;29;20680;-90
2023/03/28 04:19:33;;;;;;;6.10;4.10;;;;;;;-141.97;62.17;47730.50;4843261;29;20168;-90
2023/03/28 04:21:59;;;;;;;6.07;4.33;;;;;;;-141.97;62.32;47522.91;4842866;29;20238;-89
2023/03/28 04:24:24;;;;;;;6.63;4.33;;;;;;;-141.97;61.78;47584.44;4861982;29;20213;-90
2023/03/28 04:26:54;;;;;;;7.10;4.13;;;;;;;-141.97;60.96;47492.16;4851458;29;20630;-89
2023/03/28 04:29:24;;;;;;;6.37;3.23;;;;;;;-141.97;61.75;47636.31;4846244;29;20181;-89
2023/03/28 04:31:49;;;;;;;9.23;3.37;;;;;;;-141.97;61.34;47720.91;4845967;29;20449;-90
2023/03/28 04:34:18;;;;;;;4.10;3.03;;;;;;;-141.97;61.15;47624.78;4846946;29;20809;-90
2023/03/28 04:36:45;;;;;;;4.10;3.10;;;;;;;-141.97;60.30;47632.47;4847015;29;20176;-91
2023/03/28 04:39:12;;;;;;;3.63;2.57;;;;;;;-141.97;60.67;47599.81;4848783;29;20837;-91
2023/03/28 04:41:37;;;;;;;4.93;3.07;;;;;;;-141.97;60.75;47628.63;4879043;29;20899;-91
2023/03/28 04:44:03;;;;;;;4.07;2.90;;;;;;;-141.97;60.88;47713.22;4847606;29;20422;-91
2023/03/28 04:46:28;;;;;;;6.40;2.73;;;;;;;-141.97;59.69;47667.06;4844644;29;20181;-92
2023/03/28 04:48:54;;;;;;;6.90;3.43;;;;;;;-141.97;60.08;47522.91;4844557;29;20177;-92
2023/03/28 04:51:20;;;;;;;4.50;3.27;;;;;;;-141.97;60.23;47688.22;4848639;29;20209;-92
2023/03/28 04:53:45;;;;;;;3.63;2.40;;;;;;;-141.97;59.84;47482.56;4863746;29;20611;-92
2023/03/28 04:56:12;;;;;;;6.67;2.53;;;;;;;-141.97;59.57;47657.47;4865083;29;20418;-92
2023/03/28 04:58:39;;;;;;;3.63;2.30;;;;;;;-141.97;58.84;47645.94;4882736;29;20187;-92
2023/03/28 05:01:04;;;;;;;3.00;2.37;;;;;;;-141.97;59.01;47507.53;4891723;29;20417;-91
2023/03/28 05:03:30;;;;;;;3.63;2.63;;;;;;;-141.97;58.53;47607.50;4867797;29;20524;-90
2023/03/28 05:05:56;;;;;;;4.77;2.93;;;;;;;-141.97;59.06;47699.75;4877511;29;20259;-91
2023/03/28 05:08:23;;;;;;;4.50;1.90;;;;;;;-141.97;58.96;47607.50;4862804;29;20211;-94
2023/03/28 05:10:54;;;;;;;4.80;2.50;;;;;;;-141.97;58.33;47715.13;4877770;29;20183;-90
2023/03/28 05:13:20;;;;;;;6.67;2.40;;;;;;;-141.97;58.22;47692.06;4876504;29;20516;-90
2023/03/28 05:15:47;;;;;;;3.40;2.10;;;;;;;-141.97;59.28;47632.47;4876407;29;20415;-90
2023/03/28 05:18:13;;;;;;;6.50;2.87;;;;;;;-141.97;59.03;47722.81;4882393;29;20745;-90
2023/03/28 05:20:38;;;;;;;5.33;3.47;;;;;;;-141.97;58.91;47505.63;4885613;29;20416;-91
2023/03/28 05:23:05;;;;;;;7.83;4.70;;;;;;;-141.97;58.78;47578.66;4882941;29;20220;-90
2023/03/28 05:25:30;;;;;;;6.53;3.70;;;;;;;-141.97;59.03;47645.94;4894924;29;20190;-92
2023/03/28 05:27:56;;;;;;;5.73;3.40;;;;;;;-141.97;58.36;47511.38;4896418;29;20419;-90
2023/03/28 05:30:22;;;;;;;5.73;3.43;;;;;;;-141.97;58.65;47684.38;4879501;29;20268;-91
2023/03/28 05:32:47;;;;;;;4.90;2.73;;;;;;;-141.97;58.16;47682.47;4880525;29;20207;-91
2023/03/28 05:35:14;;;;;;;3.50;2.40;;;;;;;-141.97;57.95;47530.59;4875682;29;20182;-91
2023/03/28 05:37:40;;;;;;;3.10;2.17;;;;;;;-141.97;57.68;47507.53;4875536;29;20198;-91
2023/03/28 05:40:11;;;;;;;3.70;2.10;;;;;;;-141.97;57.31;47496.00;4875742;29;20577;-91
2023/03/28 05:42:38;;;;;;;6.17;2.40;;;;;;;-141.97;57.46;47620.94;4861061;29;20289;-90
2023/03/28 05:45:07;;;;;;;4.73;2.47;;;;;;;-141.97;57.69;47640.16;4874982;29;20423;-91
2023/03/28 05:47:34;;;;;;;8.37;2.60;;;;;;;-141.97;56.05;47734.34;4860665;29;20608;-89
2023/03/28 05:49:59;;;;;;;5.23;3.43;;;;;;;-141.97;57.26;47513.31;4874684;29;20456;-91
2023/03/28 05:52:28;;;;;;;3.53;2.10;;;;;;;-141.97;56.74;47630.56;4862575;29;20491;-91
2023/03/28 05:54:55;;;;;;;2.87;2.23;;;;;;;-141.97;57.18;47467.19;4875534;29;20192;-90
2023/03/28 05:57:21;;;;;;;2.90;2.43;;;;;;;-141.97;56.30;47446.03;4875410;29;20999;-90
2023/03/28 05:59:47;;;;;;;3.20;2.10;;;;;;;-141.97;56.31;47659.38;4875631;29;20419;-92
2023/03/28 06:02:15;;;;;;;3.37;2.53;;;;;;;-141.97;56.04;47682.47;4878350;29;20515;-89
2023/03/28 06:04:41;;;;;;;4.07;2.53;;;;;;;-141.97;56.20;47580.59;4878750;29;20460;-91
2023/03/28 06:07:07;;;;;;;3.30;2.23;;;;;;;-141.97;56.88;47711.28;4877384;29;20489;-91
2023/03/28 06:09:33;;;;;;;2.77;2.20;;;;;;;-141.97;56.45;47615.19;4888583;29;20425;-90
2023/03/28 06:12:00;;;;;;;2.53;2.20;;;;;;;-141.97;56.72;47638.25;4871418;29;20977;-92
2023/03/28 06:14:26;;;;;;;3.00;2.70;;;;;;;-141.97;56.75;47682.47;4872933;29;20440;-91
2023/03/28 06:16:51;;;;;;;4.60;2.73;;;;;;;-141.97;56.35;47694.00;4884696;29;20420;-91
2023/03/28 06:19:20;;;;;;;3.17;2.60;;;;;;;-141.97;56.07;47630.56;4881075;29;20416;-91
2023/03/28 06:21:46;;;;;;;4.17;2.70;;;;;;;-141.97;56.30;47661.31;4880598;29;20240;-90
2023/03/28 06:24:11;;;;;;;2.90;2.47;;;;;;;-141.97;56.40;47699.75;4862525;29;20438;-90
2023/03/28 06:26:37;;;;;;;4.07;2.90;;;;;;;-141.97;56.92;47734.34;4861583;29;20190;-88
2023/03/28 06:29:03;;;;;;;4.43;2.97;;;;;;;-141.97;56.84;47699.75;4860523;29;20625;-90
2023/03/28 06:31:29;;;;;;;4.33;3.30;;;;;;;-141.97;55.31;47530.59;4859243;29;20300;-90
2023/03/28 06:33:54;;;;;;;5.63;3.73;;;;;;;-141.97;55.89;47532.53;4859793;29;20926;-90
2023/03/28 06:36:20;;;;;;;6.20;4.20;;;;;;;-141.97;54.10;47526.75;4859595;29;20669;-91
2023/03/28 06:38:46;;;;;;;6.20;4.30;;;;;;;-141.97;53.40;47609.41;4859921;29;20256;-90
2023/03/28 06:41:12;;;;;;;8.90;5.57;;;;;;;-141.97;53.83;47740.13;4867455;29;20245;-91
2023/03/28 06:43:37;;;;;;;8.60;4.50;;;;;;;-141.97;52.62;47728.59;4863712;29;20413;-91
2023/03/28 06:46:03;;;;;;;7.33;4.50;;;;;;;-141.97;52.79;47619.03;4865884;29;20269;-90
2023/03/28 06:48:30;;;;;;;8.73;4.83;;;;;;;-141.97;51.66;47540.22;4889870;29;20180;-91
2023/03/28 06:50:59;;;;;;;7.23;4.70;;;;;;;-141.97;52.59;47665.16;4874705;29;20306;-92
2023/03/28 06:53:25;;;;;;;11.23;5.27;;;;;;;-141.97;52.03;47603.66;4859932;29;20771;-90
2023/03/28 06:55:52;;;;;;;6.50;4.90;;;;;;;-141.97;52.22;47647.84;4877014;29;20963;-89
2023/03/28 06:58:18;;;;;;;8.23;4.30;;;;;;;-141.97;52.03;47657.47;4862988;29;20427;-89
2023/03/28 07:00:44;;;;;;;10.77;6.87;;;;;;;-141.97;52.41;47647.84;4878948;29;20443;-92
2023/03/28 07:03:10;;;;;;;6.33;4.80;;;;;;;-141.97;51.40;47613.25;4875288;29;20425;-92
2023/03/28 07:05:40;;;;;;;9.37;4.83;;;;;;;-141.97;51.69;47638.25;4855608;29;20188;-91
2023/03/28 07:08:07;;;;;;;11.77;5.60;;;;;;;-141.97;51.97;47634.41;4876141;29;20816;-91
2023/03/28 07:10:34;;;;;;;6.57;4.50;;;;;;;-141.97;51.25;47690.16;4874128;29;20929;-91
2023/03/28 07:12:59;;;;;;;11.00;4.97;;;;;;;-141.97;50.76;47595.97;4874359;29;20452;-91
2023/03/28 07:15:25;;;;;;;7.17;4.90;;;;;;;-141.97;51.77;47755.50;4860310;29;20503;-91
2023/03/28 07:17:52;;;;;;;8.43;5.50;;;;;;;-141.97;51.55;47703.59;4877082;29;20705;-91
2023/03/28 07:20:18;;;;;;;8.57;4.77;;;;;;;-141.97;51.53;47484.47;4863091;29;20275;-88
2023/03/28 07:22:44;;;;;;;7.10;4.33;;;;;;;-141.97;51.29;47592.13;4862249;29;20499;-90
2023/03/28 07:25:10;;;;;;;7.83;4.87;;;;;;;-141.97;51.53;47472.94;4879452;29;20413;-92
2023/03/28 07:27:35;;;;;;;10.23;5.13;;;;;;;-141.97;51.42;47546.00;4862495;29;20209;-92
2023/03/28 07:30:01;;;;;;;8.50;5.10;;;;;;;-141.97;51.62;47536.38;4868699;29;20180;-92
2023/03/28 07:32:26;;;;;;;9.53;5.20;;;;;;;-141.97;50.96;47647.84;4885157;29;20228;-93
2023/03/28 07:34:52;;;;;;;8.13;5.13;;;;;;;-141.97;50.32;47720.91;4881865;29;20253;-94
2023/03/28 07:37:18;;;;;;;7.40;4.33;;;;;;;-141.97;49.79;47532.53;4892729;29;20173;-92
2023/03/28 07:39:43;;;;;;;7.73;5.03;;;;;;;-141.97;50.30;47730.50;4889860;29;20184;-91
2023/03/28 07:42:13;;;;;;;6.53;5.27;;;;;;;-141.97;50.12;47578.66;4891423;29;20223;-93
2023/03/28 07:44:40;;;;;;;6.13;4.47;;;;;;;-141.97;49.95;47720.91;4882856;29;20192;-93
2023/03/28 07:47:06;;;;;;;7.70;4.30;;;;;;;-141.97;49.62;47511.38;4898320;29;20464;-94
2023/03/28 07:49:34;;;;;;;8.33;5.30;;;;;;;-141.97;48.89;47636.31;4877867;29;20426;-93
2023/03/28 07:52:01;;;;;;;7.23;4.67;;;;;;;-141.97;49.58;47497.94;4875930;29;20676;-92
2023/03/28 07:54:27;;;;;;;6.77;4.23;;;;;;;-141.97;48.41;47509.47;4872712;29;20484;-94
2023/03/28 07:56:52;;;;;;;7.47;4.90;;;;;;;-141.97;48.00;47609.41;4886551;29;20437;-95
2023/03/28 07:59:18;;;;;;;8.90;4.73;;;;;;;-141.97;47.91;47519.06;4870541;29;20575;-93
2023/03/28 08:01:45;;;;;;;10.27;6.43;;;;;;;-141.97;47.34;47497.94;4881115;29;20175;-90
2023/03/28 08:04:12;;;;;;;7.90;5.33;;;;;;;-141.97;46.46;47718.97;4872291;29;20188;-93
2023/03/28 08:06:39;;;;;;;6.37;4.90;;;;;;;-141.97;47.43;47684.38;5069489;23;20674;-92
2023/03/28 08:09:07;;;;;;;8.23;5.10;;;;;;;-141.97;46.97;47557.53;5158454;23;20541;-92
2023/03/28 08:11:36;;;;;;;13.77;8.50;;;;;;;-141.97;47.43;47638.25;4904728;24;20600;-93
2023/03/28 08:14:03;;;;;;;11.40;6.67;;;;;;;-141.97;46.62;47488.31;4887289;29;20530;-93
2023/03/28 08:16:29;;;;;;;7.20;4.90;;;;;;;-141.97;47.31;47711.28;4883898;29;20459;-93
2023/03/28 08:18:55;;;;;;;8.33;4.27;;;;;;;-141.97;46.65;47480.63;4883444;29;20443;-90
2023/03/28 08:21:20;;;;;;;8.60;5.50;;;;;;;-141.97;46.47;47532.53;4882057;29;20187;-93
2023/03/28 08:23:46;;;;;;;7.80;4.77;;;;;;;-141.97;46.18;47572.91;4881809;29;20190;-90
2023/03/28 08:26:12;;;;;;;9.83;5.10;;;;;;;-141.97;46.36;47584.44;4881462;29;20203;-91
2023/03/28 08:28:38;;;;;;;10.57;5.97;;;;;;;-141.97;46.07;47499.84;4881561;29;20187;-92
2023/03/28 08:31:12;;;;;;;7.33;4.83;;;;;;;-141.97;46.69;47536.38;4884539;29;20743;-92
2023/03/28 08:33:39;;;;;;;8.40;5.60;;;;;;;-141.97;47.22;47695.91;4880884;29;20226;-92
2023/03/28 08:36:05;;;;;;;8.20;6.10;;;;;;;-141.97;47.34;47588.28;4881394;29;20444;-94
2023/03/28 08:38:31;;;;;;;8.23;5.80;;;;;;;-141.97;47.84;47584.44;4894499;29;20456;-92
2023/03/28 08:41:18;;;;;;;6.77;4.70;;;;;;;-141.97;47.41;47659.38;4879484;29;20421;-91
2023/03/28 08:44:16;;;;;;;5.43;4.03;;;;;;;-141.97;46.57;47626.72;4878547;29;20493;-92
2023/03/28 08:46:44;;;;;;;10.77;6.10;;;;;;;-141.97;46.27;47494.09;4878121;29;20435;-93
2023/03/28 08:49:16;;;;;;;5.57;3.67;;;;;;;-141.97;45.23;47653.63;4871617;29;20429;-93
2023/03/28 08:51:46;;;;;;;7.40;4.47;;;;;;;-141.97;44.79;47642.09;4859403;29;20966;-93
2023/03/28 08:54:41;;;;;;;7.97;4.80;;;;;;;-141.97;44.45;47667.06;4869841;29;20440;-92
2023/03/28 08:57:16;;;;;;;8.25;5.15;;;;;;;-141.97;43.62;47742.03;5008233;24;21397;-92
2023/03/28 08:59:47;;;;;;;12.00;7.50;;;;;;;-141.97;43.04;47638.25;5146065;23;20242;-91
2023/03/28 09:02:21;;;;;;;28.83;8.30;;;;;;;-141.97;43.07;47642.09;4882256;29;20652;-90
2023/03/28 09:04:48;;;;;;;12.07;7.03;;;;;;;-141.97;42.36;47490.25;4884451;29;20182;-91
2023/03/28 09:07:16;;;;;;;5.20;3.30;;;;;;;-141.97;41.38;47663.22;4881760;29;20274;-92
2023/03/28 09:10:03;;;;;;;13.33;6.30;;;;;;;-141.97;42.61;47651.69;4869431;29;20183;-92
2023/03/28 09:13:04;;;;;;;8.00;4.83;;;;;;;-141.97;41.74;47482.56;4881795;29;20302;-93
2023/03/28 09:15:49;;;;;;;9.17;5.07;;;;;;;-141.97;41.62;47653.63;4861958;29;20245;-93
2023/03/28 09:18:53;;;;;;;6.63;4.30;;;;;;;-141.97;41.62;47530.59;4864224;29;20191;-93
2023/03/28 09:21:47;;;;;;;11.40;5.63;;;;;;;-141.97;41.01;47595.97;4882415;29;20176;-94
2023/03/28 09:24:27;;;;;;;8.97;5.03;;;;;;;-141.97;41.62;47503.69;4866447;29;20199;-94
2023/03/28 09:27:03;;;;;;;6.93;4.53;;;;;;;-141.97;41.01;47617.09;4868135;29;20191;-92
2023/03/28 09:29:32;;;;;;;6.87;4.23;;;;;;;-141.97;41.15;47513.31;4867498;29;20184;-95
2023/03/28 09:32:23;;;;;;;5.60;3.70;;;;;;;-141.97;41.44;47626.72;4871420;29;20234;-93
2023/03/28 09:34:50;;;;;;;6.90;4.37;;;;;;;-141.97;41.37;47630.56;4872375;29;20183;-94
2023/03/28 09:37:38;;;;;;;10.37;4.67;;;;;;;-141.97;40.65;47513.31;4874850;29;20176;-93
2023/03/28 09:40:27;;;;;;;9.07;4.60;;;;;;;-141.97;40.60;47644.00;4871262;29;20197;-93
2023/03/28 09:43:15;;;;;;;4.13;2.73;;;;;;;-141.97;40.80;47722.81;4873087;29;20205;-92
2023/03/28 09:45:52;;;;;;;4.40;3.80;;;;;;;-141.97;40.08;47634.41;4876199;29;20207;-93
2023/03/28 09:48:38;;;;;;;7.37;4.97;;;;;;;-141.97;40.09;47446.03;4882869;29;20175;-92
2023/03/28 09:51:12;;;;;;;24.50;11.83;;;;;;;-141.97;39.94;47634.41;4862927;29;20796;-93
2023/03/28 09:53:37;;;;;;;4.93;3.93;;;;;;;-141.97;40.08;47715.13;4869303;29;20204;-92
2023/03/28 09:56:10;;;;;;;5.60;3.40;;;;;;;-141.97;39.72;47588.28;4862985;29;20175;-94
2023/03/28 09:58:55;;;;;;;5.50;4.20;;;;;;;-141.97;39.83;47638.25;4867213;29;20227;-94
2023/03/28 10:01:38;;;;;;;8.60;4.70;;;;;;;-141.97;40.28;47615.19;4881509;29;20274;-93
2023/03/28 10:04:19;;;;;;;5.50;4.17;;;;;;;-141.97;40.88;47624.78;4899256;29;20175;-95
2023/03/28 10:06:45;;;;;;;7.77;3.70;;;;;;;-141.97;41.54;47476.78;4881857;29;20223;-93
2023/03/28 10:09:25;;;;;;;6.87;4.87;;;;;;;-141.97;41.32;47642.09;4887464;29;20166;-96
2023/03/28 10:11:58;;;;;;;7.70;5.13;;;;;;;-141.97;40.01;47457.56;4892470;29;20479;-93
2023/03/28 10:15:00;;;;;;;9.50;4.73;;;;;;;-141.97;40.17;47657.47;4885098;29;20183;-92
2023/03/28 10:17:52;;;;;;;8.93;4.93;;;;;;;-141.97;41.07;47728.59;4886329;29;20281;-94
2023/03/28 10:20:22;;;;;;;8.20;4.40;;;;;;;-141.97;39.90;47628.63;4888669;29;20203;-91
2023/03/28 10:22:51;;;;;;;9.43;5.70;;;;;;;-141.97;40.03;47542.16;4881478;29;20195;-91
2023/03/28 10:25:38;;;;;;;3.90;2.73;;;;;;;-141.97;39.97;47705.53;4864064;29;20278;-92
2023/03/28 10:28:08;;;;;;;7.43;4.37;;;;;;;-141.97;40.71;47611.34;4890744;29;20210;-92
2023/03/28 10:31:03;;;;;;;7.13;4.53;;;;;;;-141.97;38.95;47649.78;4874896;29;20222;-94
2023/03/28 10:33:39;;;;;;;5.87;3.80;;;;;;;-141.97;39.24;47651.69;4830856;29;20223;-94
2023/03/28 10:36:08;;;;;;;4.90;3.80;;;;;;;-141.97;39.07;47694.00;4817223;29;20225;-93
2023/03/28 10:38:54;;;;;;;6.53;3.87;;;;;;;-141.97;38.05;47565.22;4795440;29;20218;-93
2023/03/28 10:41:53;;;;;;;4.93;3.70;;;;;;;-141.97;38.82;47665.16;4785522;30;20364;-91
2023/03/28 10:44:31;;;;;;;5.33;3.33;;;;;;;-141.97;39.03;47684.38;4853360;24;20255;-91
2023/03/28 10:47:01;;;;;;;5.87;4.40;;;;;;;-141.97;38.29;47680.53;4961135;23;20267;-93
2023/03/28 10:55:37;;;;;;;7.60;4.47;;;;;;;-141.97;38.13;47534.44;5181663;23;20219;-93
2023/03/28 11:00:55;;;;;;;5.00;3.50;;;;;;;-141.97;38.81;47674.78;5360534;23;20663;-95
2023/03/28 11:03:39;;;;;;;7.37;4.70;;;;;;;-141.97;38.78;47653.63;4907417;29;20187;-93
2023/03/28 11:06:28;;;;;;;4.70;3.03;;;;;;;-141.97;38.03;47669.00;4888868;29;20667;-93
2023/03/28 11:09:11;;;;;;;4.90;3.30;;;;;;;-141.97;37.83;47642.09;4888543;29;20233;-92
2023/03/28 11:11:40;;;;;;;5.33;3.43;;;;;;;-141.97;38.40;47615.19;4874483;29;20234;-91
2023/03/28 11:14:32;;;;;;;7.93;4.23;;;;;;;-141.97;38.93;47645.94;4887284;29;20180;-92
2023/03/28 11:17:08;;;;;;;8.83;4.33;;;;;;;-141.97;37.81;47665.16;4879879;29;20184;-94
2023/03/28 11:19:37;;;;;;;9.83;5.80;;;;;;;-141.97;38.19;47647.84;4886773;29;20896;-93
2023/03/28 11:22:11;;;;;;;7.83;4.90;;;;;;;-141.97;37.54;47601.72;4885420;29;20176;-93
2023/03/28 11:25:13;;;;;;;14.83;6.90;;;;;;;-141.97;37.53;47642.09;4883665;29;20176;-92
2023/03/28 11:27:43;;;;;;;5.17;3.87;;;;;;;-141.97;38.17;47688.22;4871033;29;20179;-93
2023/03/28 11:30:16;;;;;;;7.33;5.00;;;;;;;-141.97;38.06;47613.25;4896759;29;20212;-92
2023/03/28 11:32:49;;;;;;;5.67;4.03;;;;;;;-141.97;37.81;47715.13;4885411;29;20203;-93
2023/03/28 11:35:15;;;;;;;4.87;3.60;;;;;;;-141.97;38.05;47628.63;4883291;29;20188;-93
2023/03/28 11:38:08;;;;;;;5.40;3.40;;;;;;;-141.97;38.07;47617.09;4889544;29;20187;-94
2023/03/28 11:40:45;;;;;;;8.07;4.77;;;;;;;-141.97;37.83;47555.59;4884019;29;20184;-92
2023/03/28 11:43:20;;;;;;;5.87;4.07;;;;;;;-141.97;37.77;47672.84;4886194;29;20214;-94
2023/03/28 11:46:23;;;;;;;9.57;4.13;;;;;;;-141.97;37.88;47574.81;4869257;29;20212;-93